createdAt,value
2017-12-01T00:00:43.760Z,0.00
2017-12-01T00:01:43.752Z,0.00
2017-12-01T00:02:43.743Z,0.00
2017-12-01T00:03:43.734Z,0.00
2017-12-01T00:04:43.729Z,0.00
2017-12-01T00:05:43.721Z,0.00
2017-12-01T00:06:43.711Z,0.00
2017-12-01T00:07:43.702Z,0.00
2017-12-01T00:08:43.693Z,0.00
2017-12-01T00:09:43.684Z,0.00
2017-12-01T00:10:43.675Z,0.00
2017-12-01T00:11:43.667Z,0.00
2017-12-01T00:12:43.653Z,0.00
2017-12-01T00:13:43.644Z,0.00
2017-12-01T00:14:43.637Z,0.00
2017-12-01T00:15:43.627Z,0.00
2017-12-01T00:16:43.624Z,0.00
2017-12-01T00:17:43.608Z,0.00
2017-12-01T00:18:43.599Z,0.00
2017-12-01T00:19:43.589Z,0.00
2017-12-01T00:20:43.585Z,0.00
2017-12-01T00:21:43.581Z,0.00
2017-12-01T00:22:43.567Z,0.00
2017-12-01T00:23:43.558Z,0.00
2017-12-01T00:24:43.548Z,0.00
2017-12-01T00:25:43.540Z,0.00
2017-12-01T00:26:43.531Z,0.00
2017-12-01T00:27:43.522Z,0.00
2017-12-01T00:28:43.510Z,0.00
2017-12-01T00:29:43.499Z,0.00
2017-12-01T00:30:43.489Z,0.00
2017-12-01T00:31:43.481Z,0.00
2017-12-01T00:32:43.474Z,0.00
2017-12-01T00:33:43.466Z,0.00
2017-12-01T00:34:43.454Z,0.00
2017-12-01T00:35:43.445Z,0.00
2017-12-01T00:36:43.443Z,0.00
2017-12-01T00:37:43.433Z,0.00
2017-12-01T00:38:43.423Z,0.00
2017-12-01T00:39:43.414Z,0.00
2017-12-01T00:40:43.400Z,0.00
2017-12-01T00:41:43.392Z,0.00
2017-12-01T00:42:43.382Z,0.00
2017-12-01T00:43:43.374Z,0.00
2017-12-01T00:44:43.369Z,0.00
2017-12-01T00:45:43.361Z,0.00
2017-12-01T00:46:43.351Z,0.00
2017-12-01T00:47:43.341Z,0.00
2017-12-01T00:48:43.336Z,0.00
2017-12-01T00:49:43.324Z,0.00
2017-12-01T00:50:43.314Z,0.00
2017-12-01T00:51:43.305Z,0.00
2017-12-01T00:52:43.292Z,0.00
2017-12-01T00:53:43.283Z,0.00
2017-12-01T00:54:43.275Z,0.00
2017-12-01T00:55:43.265Z,0.00
2017-12-01T00:56:43.258Z,0.00
2017-12-01T00:57:43.249Z,0.00
2017-12-01T00:58:43.238Z,0.00
2017-12-01T00:59:43.230Z,0.00
2017-12-01T01:00:43.226Z,0.00
2017-12-01T01:01:43.216Z,0.00
2017-12-01T01:02:43.206Z,0.00
2017-12-01T01:03:43.197Z,0.00
2017-12-01T01:04:43.190Z,0.00
2017-12-01T01:05:43.180Z,0.00
2017-12-01T01:06:43.205Z,0.00
2017-12-01T01:07:43.161Z,0.00
2017-12-01T01:08:43.150Z,0.00
2017-12-01T01:09:43.140Z,0.00
2017-12-01T01:10:43.130Z,0.00
2017-12-01T01:11:43.123Z,0.00
2017-12-01T01:12:43.112Z,0.00
2017-12-01T01:13:43.107Z,0.00
2017-12-01T01:14:43.095Z,0.00
2017-12-01T01:15:43.085Z,0.00
2017-12-01T01:16:43.138Z,0.00
2017-12-01T01:17:43.072Z,0.00
2017-12-01T01:18:43.061Z,0.00
2017-12-01T01:19:43.053Z,0.00
2017-12-01T01:20:43.044Z,0.00
2017-12-01T01:21:43.036Z,0.00
2017-12-01T01:22:43.026Z,0.00
2017-12-01T01:23:43.015Z,0.00
2017-12-01T01:24:43.002Z,0.00
2017-12-01T01:25:42.994Z,0.00
2017-12-01T01:26:42.983Z,0.00
2017-12-01T01:27:42.974Z,0.00
2017-12-01T01:28:42.964Z,0.00
2017-12-01T01:29:42.955Z,0.00
2017-12-01T01:30:42.944Z,0.00
2017-12-01T01:31:42.939Z,0.00
2017-12-01T01:32:42.931Z,0.00
2017-12-01T01:33:42.922Z,0.00
2017-12-01T01:34:42.911Z,0.00
2017-12-01T01:35:42.901Z,0.00
2017-12-01T01:36:42.891Z,0.00
2017-12-01T01:37:42.882Z,0.00
2017-12-01T01:38:42.872Z,0.00
2017-12-01T01:39:42.864Z,0.00
2017-12-01T01:40:42.850Z,0.00
2017-12-01T01:41:42.839Z,0.00
2017-12-01T01:42:42.829Z,0.00
2017-12-01T01:43:42.820Z,0.00
2017-12-01T01:44:42.814Z,0.00
2017-12-01T01:45:42.805Z,0.00
2017-12-01T01:46:42.795Z,0.00
2017-12-01T01:47:42.785Z,0.00
2017-12-01T01:48:42.770Z,0.00
2017-12-01T01:49:42.761Z,0.00
2017-12-01T01:50:42.750Z,0.00
2017-12-01T01:51:42.741Z,0.00
2017-12-01T01:52:42.731Z,0.00
2017-12-01T01:53:42.723Z,0.00
2017-12-01T01:54:42.711Z,0.00
2017-12-01T01:55:42.702Z,0.00
2017-12-01T01:56:42.697Z,0.00
2017-12-01T01:57:42.687Z,0.00
2017-12-01T01:58:42.677Z,0.00
2017-12-01T01:59:42.666Z,0.00
2017-12-01T02:00:42.661Z,0.00
2017-12-01T02:01:42.647Z,0.00
2017-12-01T02:02:42.635Z,0.00
2017-12-01T02:03:42.626Z,0.00
2017-12-01T02:04:42.612Z,0.00
2017-12-01T02:05:42.614Z,0.00
2017-12-01T02:06:42.598Z,0.00
2017-12-01T02:07:42.582Z,0.00
2017-12-01T02:08:42.572Z,0.00
2017-12-01T02:09:42.562Z,0.00
2017-12-01T02:10:42.552Z,0.00
2017-12-01T02:11:42.542Z,0.00
2017-12-01T02:12:42.539Z,0.00
2017-12-01T02:13:42.528Z,0.00
2017-12-01T02:14:42.516Z,0.00
2017-12-01T02:15:42.507Z,0.00
2017-12-01T02:16:42.497Z,0.00
2017-12-01T02:17:42.488Z,0.00
2017-12-01T02:18:42.477Z,0.00
2017-12-01T02:19:42.468Z,0.00
2017-12-01T02:20:42.453Z,0.00
2017-12-01T02:21:42.445Z,0.00
2017-12-01T02:22:42.432Z,0.00
2017-12-01T02:23:42.424Z,0.00
2017-12-01T02:24:42.417Z,0.00
2017-12-01T02:25:42.407Z,0.00
2017-12-01T02:26:42.394Z,0.00
2017-12-01T02:27:42.383Z,0.00
2017-12-01T02:28:42.378Z,0.00
2017-12-01T02:29:42.370Z,0.00
2017-12-01T02:30:42.358Z,0.00
2017-12-01T02:31:42.351Z,0.00
2017-12-01T02:32:42.339Z,0.00
2017-12-01T02:33:42.330Z,0.00
2017-12-01T02:34:42.320Z,0.00
2017-12-01T02:35:42.311Z,0.00
2017-12-01T02:36:42.296Z,0.00
2017-12-01T02:37:42.287Z,0.00
2017-12-01T02:38:42.337Z,0.00
2017-12-01T02:39:42.267Z,0.00
2017-12-01T02:40:42.258Z,0.00
2017-12-01T02:41:42.251Z,0.00
2017-12-01T02:42:42.239Z,0.00
2017-12-01T02:43:42.230Z,0.00
2017-12-01T02:44:42.225Z,0.00
2017-12-01T02:45:42.215Z,0.00
2017-12-01T02:46:42.204Z,0.00
2017-12-01T02:47:42.196Z,0.00
2017-12-01T02:48:42.181Z,0.00
2017-12-01T02:49:42.175Z,0.00
2017-12-01T02:50:42.170Z,0.00
2017-12-01T02:51:42.158Z,0.00
2017-12-01T02:52:42.147Z,0.00
2017-12-01T02:53:42.139Z,0.00
2017-12-01T02:54:42.128Z,0.00
2017-12-01T02:55:42.125Z,0.00
2017-12-01T02:56:42.108Z,0.00
2017-12-01T02:57:42.100Z,0.00
2017-12-01T02:58:42.089Z,0.00
2017-12-01T02:59:42.080Z,0.00
2017-12-01T03:00:42.067Z,0.00
2017-12-01T03:01:42.057Z,0.00
2017-12-01T03:02:42.047Z,0.00
2017-12-01T03:03:42.038Z,0.00
2017-12-01T03:04:42.028Z,0.00
2017-12-01T03:05:42.019Z,0.00
2017-12-01T03:06:42.009Z,0.00
2017-12-01T03:07:41.998Z,0.00
2017-12-01T03:08:41.993Z,0.00
2017-12-01T03:09:41.985Z,0.00
2017-12-01T03:10:41.974Z,0.00
2017-12-01T03:11:41.965Z,0.00
2017-12-01T03:12:41.955Z,0.00
2017-12-01T03:13:41.945Z,0.00
2017-12-01T03:14:41.936Z,0.00
2017-12-01T03:15:41.926Z,0.00
2017-12-01T03:16:41.914Z,0.00
2017-12-01T03:17:41.903Z,0.00
2017-12-01T03:18:41.893Z,0.00
2017-12-01T03:19:41.885Z,0.00
2017-12-01T03:20:41.879Z,0.00
2017-12-01T03:21:41.864Z,0.00
2017-12-01T03:22:41.855Z,0.00
2017-12-01T03:23:41.846Z,0.00
2017-12-01T03:24:41.840Z,0.00
2017-12-01T03:25:41.831Z,0.00
2017-12-01T03:26:41.820Z,0.00
2017-12-01T03:27:41.813Z,0.00
2017-12-01T03:28:41.802Z,0.00
2017-12-01T03:29:41.793Z,0.00
2017-12-01T03:30:41.784Z,0.00
2017-12-01T03:31:41.772Z,0.00
2017-12-01T03:32:41.760Z,0.00
2017-12-01T03:33:41.750Z,0.00
2017-12-01T03:34:41.739Z,0.00
2017-12-01T03:35:41.730Z,0.00
2017-12-01T03:36:41.722Z,0.00
2017-12-01T03:37:41.712Z,0.00
2017-12-01T03:38:41.701Z,0.00
2017-12-01T03:39:41.693Z,0.00
2017-12-01T03:40:41.687Z,0.00
2017-12-01T03:41:41.678Z,0.00
2017-12-01T03:42:41.668Z,0.00
2017-12-01T03:43:41.659Z,0.00
2017-12-01T03:44:41.650Z,0.00
2017-12-01T03:45:41.641Z,0.00
2017-12-01T03:46:41.631Z,0.00
2017-12-01T03:47:41.620Z,0.00
2017-12-01T03:48:41.607Z,0.00
2017-12-01T03:49:41.597Z,0.00
2017-12-01T03:50:41.585Z,0.00
2017-12-01T03:51:41.578Z,0.00
2017-12-01T03:52:41.574Z,0.00
2017-12-01T03:53:41.563Z,0.00
2017-12-01T03:54:41.554Z,0.00
2017-12-01T03:55:41.544Z,0.00
2017-12-01T03:56:41.532Z,0.00
2017-12-01T03:57:41.522Z,0.00
2017-12-01T03:58:41.520Z,0.00
2017-12-01T03:59:41.502Z,0.00
2017-12-01T04:00:41.492Z,0.00
2017-12-01T04:01:41.483Z,0.00
2017-12-01T04:02:41.473Z,0.00
2017-12-01T04:03:41.464Z,0.00
2017-12-01T04:04:41.465Z,0.00
2017-12-01T04:05:41.449Z,0.00
2017-12-01T04:06:41.438Z,0.00
2017-12-01T04:07:41.429Z,0.00
2017-12-01T04:08:41.421Z,0.00
2017-12-01T04:09:41.411Z,0.00
2017-12-01T04:10:41.400Z,0.00
2017-12-01T04:11:41.396Z,0.00
2017-12-01T04:12:41.378Z,0.00
2017-12-01T04:13:41.368Z,0.00
2017-12-01T04:14:41.358Z,0.00
2017-12-01T04:15:41.351Z,0.00
2017-12-01T04:16:41.338Z,0.00
2017-12-01T04:17:41.329Z,0.00
2017-12-01T04:18:41.319Z,0.00
2017-12-01T04:19:41.310Z,0.00
2017-12-01T04:20:41.305Z,0.00
2017-12-01T04:21:41.295Z,0.00
2017-12-01T04:22:41.288Z,0.00
2017-12-01T04:23:41.278Z,0.00
2017-12-01T04:24:41.265Z,0.00
2017-12-01T04:25:41.256Z,0.00
2017-12-01T04:26:41.246Z,0.00
2017-12-01T04:27:41.237Z,0.00
2017-12-01T04:28:41.223Z,0.00
2017-12-01T04:29:41.215Z,0.00
2017-12-01T04:30:41.205Z,0.00
2017-12-01T04:31:41.194Z,0.00
2017-12-01T04:32:41.184Z,0.00
2017-12-01T04:33:41.176Z,0.00
2017-12-01T04:34:41.164Z,0.00
2017-12-01T04:35:41.157Z,0.00
2017-12-01T04:36:41.151Z,0.00
2017-12-01T04:37:41.140Z,0.00
2017-12-01T04:38:41.129Z,0.00
2017-12-01T04:39:41.119Z,0.00
2017-12-01T04:40:41.111Z,0.00
2017-12-01T04:41:41.101Z,0.00
2017-12-01T04:42:41.090Z,0.00
2017-12-01T04:43:41.080Z,0.00
2017-12-01T04:44:41.067Z,0.00
2017-12-01T04:45:41.057Z,0.00
2017-12-01T04:46:41.046Z,0.00
2017-12-01T04:47:41.037Z,0.00
2017-12-01T04:48:41.029Z,0.00
2017-12-01T04:49:41.018Z,0.00
2017-12-01T04:50:41.009Z,0.00
2017-12-01T04:51:40.997Z,0.00
2017-12-01T04:52:40.992Z,0.00
2017-12-01T04:53:40.983Z,0.00
2017-12-01T04:54:40.972Z,0.00
2017-12-01T04:55:40.963Z,0.00
2017-12-01T04:56:40.958Z,0.00
2017-12-01T04:57:40.940Z,0.00
2017-12-01T04:58:40.930Z,0.00
2017-12-01T04:59:40.940Z,0.00
2017-12-01T05:00:40.916Z,0.00
2017-12-01T05:01:40.914Z,0.00
2017-12-01T05:02:40.894Z,0.00
2017-12-01T05:03:40.885Z,0.00
2017-12-01T05:04:40.876Z,0.00
2017-12-01T05:05:40.867Z,0.00
2017-12-01T05:06:40.857Z,0.00
2017-12-01T05:07:40.848Z,0.00
2017-12-01T05:08:40.834Z,0.00
2017-12-01T05:09:40.825Z,0.00
2017-12-01T05:10:40.815Z,0.00
2017-12-01T05:11:40.805Z,0.00
2017-12-01T05:12:40.805Z,0.00
2017-12-01T05:13:40.787Z,0.00
2017-12-01T05:14:40.775Z,0.00
2017-12-01T05:15:40.768Z,0.00
2017-12-01T05:16:40.762Z,0.00
2017-12-01T05:17:40.752Z,0.00
2017-12-01T05:18:40.743Z,0.00
2017-12-01T05:19:40.732Z,0.00
2017-12-01T05:20:40.723Z,0.00
2017-12-01T05:21:40.717Z,0.00
2017-12-01T05:22:40.703Z,0.00
2017-12-01T05:23:40.695Z,0.00
2017-12-01T05:24:40.682Z,0.00
2017-12-01T05:25:40.671Z,0.00
2017-12-01T05:26:40.661Z,0.00
2017-12-01T05:27:40.651Z,0.00
2017-12-01T05:28:40.642Z,0.00
2017-12-01T05:29:40.632Z,0.00
2017-12-01T05:30:40.622Z,0.00
2017-12-01T05:31:40.613Z,0.00
2017-12-01T05:32:40.608Z,0.00
2017-12-01T05:33:40.598Z,0.00
2017-12-01T05:34:40.586Z,0.00
2017-12-01T05:35:40.578Z,0.00
2017-12-01T05:36:40.567Z,0.00
2017-12-01T05:37:40.565Z,0.00
2017-12-01T05:38:40.547Z,0.00
2017-12-01T05:39:40.537Z,0.00
2017-12-01T05:40:40.524Z,0.00
2017-12-01T05:41:40.518Z,0.00
2017-12-01T05:42:40.503Z,0.00
2017-12-01T05:43:40.493Z,0.00
2017-12-01T05:44:40.483Z,0.00
2017-12-01T05:45:40.473Z,0.00
2017-12-01T05:46:40.464Z,0.00
2017-12-01T05:47:40.453Z,0.00
2017-12-01T05:48:40.448Z,0.00
2017-12-01T05:49:40.439Z,0.00
2017-12-01T05:50:40.429Z,0.00
2017-12-01T05:51:40.419Z,0.00
2017-12-01T05:52:40.410Z,0.00
2017-12-01T05:53:40.399Z,0.00
2017-12-01T05:54:40.388Z,0.00
2017-12-01T05:55:40.378Z,0.00
2017-12-01T05:56:40.365Z,0.00
2017-12-01T05:57:40.356Z,0.00
2017-12-01T05:58:40.344Z,0.00
2017-12-01T05:59:40.334Z,0.00
2017-12-01T06:00:40.325Z,0.00
2017-12-01T06:01:40.314Z,0.00
2017-12-01T06:02:40.306Z,0.00
2017-12-01T06:03:40.295Z,0.00
2017-12-01T06:04:40.289Z,0.00
2017-12-01T06:05:40.280Z,0.00
2017-12-01T06:06:40.269Z,0.00
2017-12-01T06:07:40.259Z,0.00
2017-12-01T06:08:40.250Z,0.00
2017-12-01T06:09:40.240Z,0.00
2017-12-01T06:10:40.231Z,0.00
2017-12-01T06:11:40.220Z,0.00
2017-12-01T06:12:40.206Z,0.00
2017-12-01T06:13:40.198Z,0.00
2017-12-01T06:14:40.186Z,0.00
2017-12-01T06:15:40.177Z,0.00
2017-12-01T06:16:40.167Z,0.00
2017-12-01T06:17:40.157Z,0.00
2017-12-01T06:18:40.146Z,0.00
2017-12-01T06:19:40.136Z,0.00
2017-12-01T06:20:40.132Z,0.00
2017-12-01T06:21:40.121Z,0.00
2017-12-01T06:22:40.110Z,0.00
2017-12-01T06:23:40.102Z,0.00
2017-12-01T06:24:40.091Z,0.00
2017-12-01T06:25:40.085Z,0.00
2017-12-01T06:26:40.071Z,0.00
2017-12-01T06:27:40.063Z,0.00
2017-12-01T06:28:40.047Z,0.00
2017-12-01T06:29:40.039Z,0.00
2017-12-01T06:30:40.029Z,0.00
2017-12-01T06:31:40.018Z,0.00
2017-12-01T06:32:40.010Z,0.00
2017-12-01T06:33:39.999Z,0.00
2017-12-01T06:34:39.987Z,0.00
2017-12-01T06:35:39.980Z,0.00
2017-12-01T06:36:39.979Z,0.00
2017-12-01T06:37:39.970Z,0.00
2017-12-01T06:38:39.953Z,0.00
2017-12-01T06:39:39.942Z,0.00
2017-12-01T06:40:39.932Z,0.00
2017-12-01T06:41:39.924Z,0.00
2017-12-01T06:42:39.922Z,0.00
2017-12-01T06:43:39.902Z,0.00
2017-12-01T06:44:39.889Z,0.00
2017-12-01T06:45:39.882Z,0.00
2017-12-01T06:46:39.869Z,0.00
2017-12-01T06:47:39.858Z,0.00
2017-12-01T06:48:39.848Z,0.00
2017-12-01T06:49:39.839Z,0.00
2017-12-01T06:50:39.829Z,0.00
2017-12-01T06:51:39.818Z,0.00
2017-12-01T06:52:39.820Z,0.00
2017-12-01T06:53:39.806Z,0.00
2017-12-01T06:54:39.792Z,0.00
2017-12-01T06:55:39.785Z,0.00
2017-12-01T06:56:39.774Z,0.00
2017-12-01T06:57:39.763Z,0.00
2017-12-01T06:58:39.753Z,0.00
2017-12-01T06:59:39.743Z,0.00
2017-12-01T07:00:39.728Z,0.00
2017-12-01T07:01:39.719Z,0.00
2017-12-01T07:02:39.708Z,0.00
2017-12-01T07:03:39.699Z,0.00
2017-12-01T07:04:39.692Z,0.00
2017-12-01T07:05:39.684Z,0.00
2017-12-01T07:06:39.672Z,0.00
2017-12-01T07:07:39.715Z,0.00
2017-12-01T07:08:39.653Z,0.00
2017-12-01T07:09:39.640Z,0.00
2017-12-01T07:10:39.628Z,0.00
2017-12-01T07:11:39.618Z,0.00
2017-12-01T07:12:39.610Z,0.00
2017-12-01T07:13:39.599Z,0.00
2017-12-01T07:14:39.588Z,0.00
2017-12-01T07:15:39.578Z,0.00
2017-12-01T07:16:39.572Z,0.00
2017-12-01T07:17:39.581Z,0.00
2017-12-01T07:18:39.552Z,5.63
2017-12-01T07:19:39.544Z,5.63
2017-12-01T07:20:39.532Z,5.63
2017-12-01T07:21:39.523Z,5.63
2017-12-01T07:22:39.513Z,5.63
2017-12-01T07:23:39.504Z,11.25
2017-12-01T07:24:39.492Z,11.25
2017-12-01T07:25:39.479Z,11.25
2017-12-01T07:26:39.471Z,16.88
2017-12-01T07:27:39.458Z,16.88
2017-12-01T07:28:39.448Z,16.88
2017-12-01T07:29:39.438Z,22.50
2017-12-01T07:30:39.429Z,22.50
2017-12-01T07:31:39.419Z,28.13
2017-12-01T07:32:39.414Z,33.75
2017-12-01T07:33:39.403Z,33.75
2017-12-01T07:34:39.393Z,33.75
2017-12-01T07:35:39.383Z,39.38
2017-12-01T07:36:39.372Z,39.38
2017-12-01T07:37:39.364Z,39.38
2017-12-01T07:38:39.351Z,39.38
2017-12-01T07:39:39.343Z,39.38
2017-12-01T07:40:39.352Z,45.00
2017-12-01T07:41:39.319Z,45.00
2017-12-01T07:42:39.308Z,45.00
2017-12-01T07:43:39.302Z,45.00
2017-12-01T07:44:39.288Z,45.00
2017-12-01T07:45:39.280Z,39.38
2017-12-01T07:46:39.267Z,39.38
2017-12-01T07:47:39.258Z,39.38
2017-12-01T07:48:39.253Z,39.38
2017-12-01T07:49:39.242Z,39.38
2017-12-01T07:50:39.231Z,39.38
2017-12-01T07:51:39.222Z,39.38
2017-12-01T07:52:39.213Z,39.38
2017-12-01T07:53:39.203Z,39.38
2017-12-01T07:54:39.193Z,39.38
2017-12-01T07:55:39.183Z,39.38
2017-12-01T07:56:39.172Z,45.00
2017-12-01T07:57:39.159Z,50.63
2017-12-01T07:58:39.148Z,56.25
2017-12-01T07:59:39.140Z,56.25
2017-12-01T08:00:39.130Z,61.88
2017-12-01T08:01:39.121Z,67.50
2017-12-01T08:02:39.109Z,61.88
2017-12-01T08:03:39.099Z,56.25
2017-12-01T08:04:39.101Z,50.63
2017-12-01T08:05:39.085Z,56.25
2017-12-01T08:06:39.074Z,50.63
2017-12-01T08:07:39.065Z,45.00
2017-12-01T08:08:39.052Z,39.38
2017-12-01T08:09:39.041Z,33.75
2017-12-01T08:10:39.039Z,33.75
2017-12-01T08:11:39.020Z,28.13
2017-12-01T08:12:39.017Z,28.13
2017-12-01T08:13:39.007Z,28.13
2017-12-01T08:14:38.996Z,28.13
2017-12-01T08:15:38.986Z,28.13
2017-12-01T08:16:38.977Z,33.75
2017-12-01T08:17:38.969Z,39.38
2017-12-01T08:18:38.957Z,45.00
2017-12-01T08:19:38.948Z,50.63
2017-12-01T08:20:38.965Z,50.63
2017-12-01T08:21:38.925Z,61.88
2017-12-01T08:22:38.926Z,73.13
2017-12-01T08:23:38.906Z,67.50
2017-12-01T08:24:38.897Z,61.88
2017-12-01T08:25:38.886Z,61.88
2017-12-01T08:26:38.876Z,73.13
2017-12-01T08:27:38.868Z,78.75
2017-12-01T08:28:38.862Z,84.38
2017-12-01T08:29:38.853Z,90.00
2017-12-01T08:30:38.845Z,95.63
2017-12-01T08:31:38.834Z,101.25
2017-12-01T08:32:38.823Z,101.25
2017-12-01T08:33:38.814Z,106.88
2017-12-01T08:34:38.805Z,101.25
2017-12-01T08:35:38.795Z,95.63
2017-12-01T08:36:38.781Z,101.25
2017-12-01T08:37:38.773Z,101.25
2017-12-01T08:38:38.761Z,101.25
2017-12-01T08:39:38.752Z,118.13
2017-12-01T08:40:38.743Z,135.00
2017-12-01T08:41:38.734Z,151.88
2017-12-01T08:42:38.725Z,151.88
2017-12-01T08:43:38.717Z,129.38
2017-12-01T08:44:38.710Z,174.38
2017-12-01T08:45:38.701Z,213.75
2017-12-01T08:46:38.690Z,230.63
2017-12-01T08:47:38.682Z,241.88
2017-12-01T08:48:38.674Z,236.25
2017-12-01T08:49:38.663Z,230.63
2017-12-01T08:50:38.653Z,230.63
2017-12-01T08:51:38.644Z,225.00
2017-12-01T08:52:38.631Z,225.00
2017-12-01T08:53:38.621Z,225.00
2017-12-01T08:54:38.619Z,225.00
2017-12-01T08:55:38.602Z,230.63
2017-12-01T08:56:38.593Z,236.25
2017-12-01T08:57:38.585Z,241.88
2017-12-01T08:58:38.574Z,241.88
2017-12-01T08:59:38.565Z,241.88
2017-12-01T09:00:38.560Z,241.88
2017-12-01T09:01:38.552Z,236.25
2017-12-01T09:02:38.542Z,230.63
2017-12-01T09:03:38.532Z,213.75
2017-12-01T09:04:38.523Z,185.63
2017-12-01T09:05:38.516Z,174.38
2017-12-01T09:06:38.505Z,185.63
2017-12-01T09:07:38.496Z,180.00
2017-12-01T09:08:38.518Z,151.88
2017-12-01T09:09:38.474Z,146.25
2017-12-01T09:10:38.464Z,146.25
2017-12-01T09:11:38.456Z,180.00
2017-12-01T09:12:38.450Z,185.63
2017-12-01T09:13:38.443Z,196.88
2017-12-01T09:14:38.433Z,196.88
2017-12-01T09:15:38.423Z,202.50
2017-12-01T09:16:38.410Z,208.13
2017-12-01T09:17:38.401Z,208.13
2017-12-01T09:18:38.392Z,208.13
2017-12-01T09:19:38.382Z,208.13
2017-12-01T09:20:38.373Z,196.88
2017-12-01T09:21:38.369Z,185.63
2017-12-01T09:22:38.356Z,185.63
2017-12-01T09:23:38.347Z,168.75
2017-12-01T09:24:38.341Z,168.75
2017-12-01T09:25:38.331Z,157.50
2017-12-01T09:26:38.323Z,129.38
2017-12-01T09:27:38.315Z,123.75
2017-12-01T09:28:38.304Z,112.50
2017-12-01T09:29:38.294Z,106.88
2017-12-01T09:30:38.286Z,123.75
2017-12-01T09:31:38.275Z,118.13
2017-12-01T09:32:38.262Z,129.38
2017-12-01T09:33:38.254Z,151.88
2017-12-01T09:34:38.244Z,174.38
2017-12-01T09:35:38.235Z,185.63
2017-12-01T09:36:38.239Z,180.00
2017-12-01T09:37:38.216Z,208.13
2017-12-01T09:38:38.205Z,213.75
2017-12-01T09:39:38.203Z,253.13
2017-12-01T09:40:38.192Z,275.63
2017-12-01T09:41:38.183Z,264.38
2017-12-01T09:42:38.173Z,264.38
2017-12-01T09:43:38.165Z,264.38
2017-12-01T09:44:38.156Z,253.13
2017-12-01T09:45:38.146Z,258.75
2017-12-01T09:46:38.138Z,303.75
2017-12-01T09:47:38.127Z,331.88
2017-12-01T09:48:38.115Z,315.00
2017-12-01T09:49:38.108Z,281.25
2017-12-01T09:50:38.096Z,253.13
2017-12-01T09:51:38.089Z,219.38
2017-12-01T09:52:38.081Z,202.50
2017-12-01T09:53:38.071Z,298.13
2017-12-01T09:54:38.062Z,253.13
2017-12-01T09:55:38.052Z,196.88
2017-12-01T09:56:38.047Z,196.88
2017-12-01T09:57:38.040Z,180.00
2017-12-01T09:58:38.029Z,236.25
2017-12-01T09:59:38.020Z,286.88
2017-12-01T10:00:38.011Z,281.25
2017-12-01T10:01:38.003Z,303.75
2017-12-01T10:02:37.993Z,241.88
2017-12-01T10:03:37.985Z,219.38
2017-12-01T10:04:37.971Z,247.50
2017-12-01T10:05:37.962Z,281.25
2017-12-01T10:06:37.954Z,376.88
2017-12-01T10:07:37.944Z,444.38
2017-12-01T10:08:37.942Z,315.00
2017-12-01T10:09:37.928Z,247.50
2017-12-01T10:10:37.917Z,185.63
2017-12-01T10:11:37.909Z,180.00
2017-12-01T10:12:37.904Z,208.13
2017-12-01T10:13:37.898Z,202.50
2017-12-01T10:14:37.887Z,208.13
2017-12-01T10:15:37.877Z,191.25
2017-12-01T10:16:37.866Z,191.25
2017-12-01T10:17:37.857Z,151.88
2017-12-01T10:18:37.846Z,163.13
2017-12-01T10:19:37.838Z,163.13
2017-12-01T10:20:37.834Z,163.13
2017-12-01T10:21:37.825Z,146.25
2017-12-01T10:22:37.815Z,168.75
2017-12-01T10:23:37.807Z,168.75
2017-12-01T10:24:37.800Z,151.88
2017-12-01T10:25:37.791Z,151.88
2017-12-01T10:26:37.780Z,157.50
2017-12-01T10:27:37.773Z,151.88
2017-12-01T10:28:37.763Z,163.13
2017-12-01T10:29:37.750Z,185.63
2017-12-01T10:30:37.741Z,196.88
2017-12-01T10:31:37.733Z,185.63
2017-12-01T10:32:37.724Z,191.25
2017-12-01T10:33:37.716Z,208.13
2017-12-01T10:34:37.705Z,180.00
2017-12-01T10:35:37.696Z,191.25
2017-12-01T10:36:37.692Z,180.00
2017-12-01T10:37:37.685Z,196.88
2017-12-01T10:38:37.673Z,185.63
2017-12-01T10:39:37.666Z,196.88
2017-12-01T10:40:37.657Z,225.00
2017-12-01T10:41:37.647Z,270.00
2017-12-01T10:42:37.638Z,241.88
2017-12-01T10:43:37.642Z,185.63
2017-12-01T10:44:37.616Z,151.88
2017-12-01T10:45:37.608Z,146.25
2017-12-01T10:46:37.598Z,151.88
2017-12-01T10:47:37.590Z,157.50
2017-12-01T10:48:37.581Z,168.75
2017-12-01T10:49:37.572Z,202.50
2017-12-01T10:50:37.563Z,236.25
2017-12-01T10:51:37.553Z,264.38
2017-12-01T10:52:37.549Z,247.50
2017-12-01T10:53:37.545Z,281.25
2017-12-01T10:54:37.530Z,354.38
2017-12-01T10:55:37.523Z,365.63
2017-12-01T10:56:37.514Z,365.63
2017-12-01T10:57:37.505Z,765.00
2017-12-01T10:58:37.494Z,815.63
2017-12-01T10:59:37.486Z,883.13
2017-12-01T11:00:37.478Z,489.38
2017-12-01T11:01:37.465Z,371.25
2017-12-01T11:02:37.456Z,388.13
2017-12-01T11:03:37.449Z,365.63
2017-12-01T11:04:37.440Z,337.50
2017-12-01T11:05:37.433Z,320.63
2017-12-01T11:06:37.429Z,270.00
2017-12-01T11:07:37.418Z,247.50
2017-12-01T11:08:37.413Z,258.75
2017-12-01T11:09:37.405Z,309.38
2017-12-01T11:10:37.399Z,388.13
2017-12-01T11:11:37.389Z,455.63
2017-12-01T11:12:37.394Z,517.50
2017-12-01T11:13:37.374Z,613.13
2017-12-01T11:14:37.367Z,691.88
2017-12-01T11:15:37.358Z,641.25
2017-12-01T11:16:37.349Z,495.00
2017-12-01T11:17:37.341Z,382.50
2017-12-01T11:18:37.331Z,331.88
2017-12-01T11:19:37.324Z,331.88
2017-12-01T11:20:37.321Z,298.13
2017-12-01T11:21:37.314Z,286.88
2017-12-01T11:22:37.304Z,270.00
2017-12-01T11:23:37.298Z,247.50
2017-12-01T11:24:37.286Z,225.00
2017-12-01T11:25:37.280Z,208.13
2017-12-01T11:26:37.272Z,151.88
2017-12-01T11:27:37.264Z,123.75
2017-12-01T11:28:37.256Z,101.25
2017-12-01T11:29:37.250Z,90.00
2017-12-01T11:30:37.242Z,78.75
2017-12-01T11:31:37.235Z,84.38
2017-12-01T11:32:37.232Z,101.25
2017-12-01T11:33:37.224Z,123.75
2017-12-01T11:34:37.216Z,123.75
2017-12-01T11:35:37.208Z,101.25
2017-12-01T11:36:37.202Z,84.38
2017-12-01T11:37:37.194Z,78.75
2017-12-01T11:38:37.186Z,73.13
2017-12-01T11:39:37.177Z,67.50
2017-12-01T11:40:37.166Z,84.38
2017-12-01T11:41:37.159Z,101.25
2017-12-01T11:42:37.149Z,112.50
2017-12-01T11:43:37.142Z,123.75
2017-12-01T11:44:37.135Z,146.25
2017-12-01T11:45:37.126Z,163.13
2017-12-01T11:46:37.118Z,163.13
2017-12-01T11:47:37.110Z,168.75
2017-12-01T11:48:37.105Z,185.63
2017-12-01T11:49:37.098Z,202.50
2017-12-01T11:50:37.088Z,225.00
2017-12-01T11:51:37.080Z,258.75
2017-12-01T11:52:37.071Z,286.88
2017-12-01T11:53:37.069Z,315.00
2017-12-01T11:54:37.061Z,360.00
2017-12-01T11:55:37.045Z,405.00
2017-12-01T11:56:37.032Z,416.25
2017-12-01T11:57:37.024Z,416.25
2017-12-01T11:58:37.040Z,444.38
2017-12-01T11:59:37.047Z,472.50
2017-12-01T12:00:36.998Z,466.88
2017-12-01T12:01:36.990Z,455.63
2017-12-01T12:02:36.980Z,421.88
2017-12-01T12:03:36.973Z,393.75
2017-12-01T12:04:36.972Z,354.38
2017-12-01T12:05:36.961Z,309.38
2017-12-01T12:06:36.950Z,270.00
2017-12-01T12:07:36.943Z,219.38
2017-12-01T12:08:36.935Z,174.38
2017-12-01T12:09:36.927Z,163.13
2017-12-01T12:10:36.918Z,151.88
2017-12-01T12:11:36.912Z,151.88
2017-12-01T12:12:36.899Z,157.50
2017-12-01T12:13:36.892Z,174.38
2017-12-01T12:14:36.889Z,185.63
2017-12-01T12:15:36.875Z,208.13
2017-12-01T12:16:36.868Z,236.25
2017-12-01T12:17:36.887Z,253.13
2017-12-01T12:18:36.857Z,270.00
2017-12-01T12:19:36.845Z,286.88
2017-12-01T12:20:36.840Z,292.50
2017-12-01T12:21:36.833Z,286.88
2017-12-01T12:22:36.824Z,275.63
2017-12-01T12:23:36.817Z,275.63
2017-12-01T12:24:36.805Z,281.25
2017-12-01T12:25:36.797Z,258.75
2017-12-01T12:26:36.788Z,247.50
2017-12-01T12:27:36.780Z,236.25
2017-12-01T12:28:36.777Z,219.38
2017-12-01T12:29:36.770Z,213.75
2017-12-01T12:30:36.760Z,208.13
2017-12-01T12:31:36.753Z,202.50
2017-12-01T12:32:36.744Z,191.25
2017-12-01T12:33:36.738Z,191.25
2017-12-01T12:34:36.729Z,180.00
2017-12-01T12:35:36.725Z,163.13
2017-12-01T12:36:36.707Z,163.13
2017-12-01T12:37:36.699Z,174.38
2017-12-01T12:38:36.692Z,196.88
2017-12-01T12:39:36.683Z,208.13
2017-12-01T12:40:36.673Z,219.38
2017-12-01T12:41:36.666Z,225.00
2017-12-01T12:42:36.656Z,236.25
2017-12-01T12:43:36.690Z,230.63
2017-12-01T12:44:36.644Z,225.00
2017-12-01T12:45:36.635Z,208.13
2017-12-01T12:46:36.625Z,202.50
2017-12-01T12:47:36.617Z,202.50
2017-12-01T12:48:36.609Z,202.50
2017-12-01T12:49:36.600Z,202.50
2017-12-01T12:50:36.590Z,196.88
2017-12-01T12:51:36.582Z,191.25
2017-12-01T12:52:36.570Z,191.25
2017-12-01T12:53:36.562Z,196.88
2017-12-01T12:54:36.552Z,196.88
2017-12-01T12:55:36.543Z,196.88
2017-12-01T12:56:36.533Z,208.13
2017-12-01T12:57:36.525Z,208.13
2017-12-01T12:58:36.520Z,202.50